sensor_id;sensor_type;location;lat;lon;timestamp;temperature;humidity
6954;DHT22;3516;47.980;8.808;2023-04-03T14:42:46;2.30;99.90
6954;DHT22;3516;47.980;8.808;2023-04-03T14:45:15;4.00;98.30
6954;DHT22;3516;47.980;8.808;2023-04-03T14:47:44;4.10;96.00
6954;DHT22;3516;47.980;8.808;2023-04-03T14:50:15;4.10;95.80
6954;DHT22;3516;47.980;8.808;2023-04-03T14:52:43;4.20;91.30
6954;DHT22;3516;47.980;8.808;2023-04-03T14:55:12;4.10;93.10
6954;DHT22;3516;47.980;8.808;2023-04-03T14:57:42;4.10;92.70
6954;DHT22;3516;47.980;8.808;2023-04-03T15:00:13;4.20;94.00
6954;DHT22;3516;47.980;8.808;2023-04-03T15:02:40;4.20;87.70
6954;DHT22;3516;47.980;8.808;2023-04-03T15:05:08;4.20;87.80
6954;DHT22;3516;47.980;8.808;2023-04-03T15:07:38;4.10;88.10
6954;DHT22;3516;47.980;8.808;2023-04-03T15:10:15;4.00;91.30
6954;DHT22;3516;47.980;8.808;2023-04-03T15:12:44;4.10;91.00
6954;DHT22;3516;47.980;8.808;2023-04-03T15:15:12;4.10;90.70
6954;DHT22;3516;47.980;8.808;2023-04-03T15:17:38;4.10;88.80
6954;DHT22;3516;47.980;8.808;2023-04-03T15:20:12;4.00;86.70
6954;DHT22;3516;47.980;8.808;2023-04-03T15:22:39;3.90;90.30
6954;DHT22;3516;47.980;8.808;2023-04-03T15:25:07;3.80;91.40
6954;DHT22;3516;47.980;8.808;2023-04-03T15:27:35;3.80;92.30
6954;DHT22;3516;47.980;8.808;2023-04-03T15:30:04;3.70;95.70
6954;DHT22;3516;47.980;8.808;2023-04-03T15:32:31;3.70;95.50
6954;DHT22;3516;47.980;8.808;2023-04-03T15:34:59;3.80;97.60
6954;DHT22;3516;47.980;8.808;2023-04-03T15:37:25;3.80;95.40
6954;DHT22;3516;47.980;8.808;2023-04-03T15:39:52;3.80;94.00
6954;DHT22;3516;47.980;8.808;2023-04-03T15:42:19;3.90;92.60
6954;DHT22;3516;47.980;8.808;2023-04-03T15:44:46;3.90;93.50
6954;DHT22;3516;47.980;8.808;2023-04-03T15:47:14;3.90;92.10
6954;DHT22;3516;47.980;8.808;2023-04-03T15:49:41;4.00;88.40
6954;DHT22;3516;47.980;8.808;2023-04-03T15:52:07;4.00;89.10
6954;DHT22;3516;47.980;8.808;2023-04-03T15:54:34;4.10;91.20
6954;DHT22;3516;47.980;8.808;2023-04-03T15:57:01;4.10;90.00
6954;DHT22;3516;47.980;8.808;2023-04-03T15:59:28;4.10;90.30
6954;DHT22;3516;47.980;8.808;2023-04-03T16:01:59;3.90;92.30
6954;DHT22;3516;47.980;8.808;2023-04-03T16:04:28;3.80;94.90
6954;DHT22;3516;47.980;8.808;2023-04-03T16:06:55;3.70;96.20
6954;DHT22;3516;47.980;8.808;2023-04-03T16:09:22;3.70;98.50
6954;DHT22;3516;47.980;8.808;2023-04-03T16:11:49;3.80;99.90
6954;DHT22;3516;47.980;8.808;2023-04-03T16:14:15;3.80;99.80
6954;DHT22;3516;47.980;8.808;2023-04-03T16:16:42;3.80;99.20
6954;DHT22;3516;47.980;8.808;2023-04-03T16:19:09;3.80;97.60
6954;DHT22;3516;47.980;8.808;2023-04-03T16:21:38;3.80;99.80
6954;DHT22;3516;47.980;8.808;2023-04-03T16:24:05;3.80;99.90
6954;DHT22;3516;47.980;8.808;2023-04-03T16:26:32;3.70;98.50
6954;DHT22;3516;47.980;8.808;2023-04-03T16:28:59;3.70;98.60
6954;DHT22;3516;47.980;8.808;2023-04-03T16:31:26;3.60;99.90
6954;DHT22;3516;47.980;8.808;2023-04-03T16:33:54;3.60;98.50
6954;DHT22;3516;47.980;8.808;2023-04-03T16:36:21;3.70;98.20
6954;DHT22;3516;47.980;8.808;2023-04-03T16:38:49;3.70;98.70
6954;DHT22;3516;47.980;8.808;2023-04-03T16:41:16;3.70;94.00
6954;DHT22;3516;47.980;8.808;2023-04-03T16:43:42;3.70;94.80
6954;DHT22;3516;47.980;8.808;2023-04-03T16:46:09;3.70;95.40
6954;DHT22;3516;47.980;8.808;2023-04-03T16:48:36;3.70;92.90
6954;DHT22;3516;47.980;8.808;2023-04-03T16:51:03;3.70;92.10
6954;DHT22;3516;47.980;8.808;2023-04-03T16:53:30;3.60;92.20
6954;DHT22;3516;47.980;8.808;2023-04-03T16:55:58;3.60;92.80
6954;DHT22;3516;47.980;8.808;2023-04-03T16:58:25;3.60;91.70
6954;DHT22;3516;47.980;8.808;2023-04-03T17:00:52;3.50;91.20
6954;DHT22;3516;47.980;8.808;2023-04-03T17:03:20;3.50;91.40
6954;DHT22;3516;47.980;8.808;2023-04-03T17:05:48;3.40;91.60
6954;DHT22;3516;47.980;8.808;2023-04-03T17:08:17;3.30;92.60
6954;DHT22;3516;47.980;8.808;2023-04-03T17:10:43;3.30;93.00
6954;DHT22;3516;47.980;8.808;2023-04-03T17:13:11;3.30;94.20
6954;DHT22;3516;47.980;8.808;2023-04-03T17:15:38;3.30;95.50
6954;DHT22;3516;47.980;8.808;2023-04-03T17:18:06;3.30;95.10
6954;DHT22;3516;47.980;8.808;2023-04-03T17:20:33;3.30;94.50
6954;DHT22;3516;47.980;8.808;2023-04-03T17:23:01;3.30;92.80
6954;DHT22;3516;47.980;8.808;2023-04-03T17:25:28;3.30;90.60
6954;DHT22;3516;47.980;8.808;2023-04-03T17:27:54;3.20;90.80
6954;DHT22;3516;47.980;8.808;2023-04-03T17:30:23;3.20;92.20
6954;DHT22;3516;47.980;8.808;2023-04-03T17:32:49;3.20;91.50
6954;DHT22;3516;47.980;8.808;2023-04-03T17:35:16;3.20;92.50
6954;DHT22;3516;47.980;8.808;2023-04-03T17:37:43;3.20;96.50
6954;DHT22;3516;47.980;8.808;2023-04-03T17:40:10;3.20;99.90
6954;DHT22;3516;47.980;8.808;2023-04-03T17:42:39;3.20;99.90
6954;DHT22;3516;47.980;8.808;2023-04-03T17:45:07;3.20;99.90
6954;DHT22;3516;47.980;8.808;2023-04-03T17:47:35;3.20;99.90
6954;DHT22;3516;47.980;8.808;2023-04-03T17:50:02;3.10;99.90
6954;DHT22;3516;47.980;8.808;2023-04-03T17:52:29;3.10;99.90
6954;DHT22;3516;47.980;8.808;2023-04-03T17:54:56;3.00;99.90
6954;DHT22;3516;47.980;8.808;2023-04-03T17:57:23;3.00;99.90
6954;DHT22;3516;47.980;8.808;2023-04-03T17:59:49;2.90;99.90
6954;DHT22;3516;47.980;8.808;2023-04-03T18:02:18;2.90;99.90
6954;DHT22;3516;47.980;8.808;2023-04-03T18:04:46;2.80;99.90
6954;DHT22;3516;47.980;8.808;2023-04-03T18:07:13;2.80;99.90
6954;DHT22;3516;47.980;8.808;2023-04-03T18:09:40;2.80;99.90
6954;DHT22;3516;47.980;8.808;2023-04-03T18:12:08;2.80;99.90
6954;DHT22;3516;47.980;8.808;2023-04-03T18:14:36;2.70;99.90
6954;DHT22;3516;47.980;8.808;2023-04-03T18:17:04;2.70;99.90
6954;DHT22;3516;47.980;8.808;2023-04-03T18:19:31;2.70;99.90
6954;DHT22;3516;47.980;8.808;2023-04-03T18:22:01;2.70;99.90
6954;DHT22;3516;47.980;8.808;2023-04-03T18:24:29;2.60;99.90
6954;DHT22;3516;47.980;8.808;2023-04-03T18:26:59;2.60;99.90
6954;DHT22;3516;47.980;8.808;2023-04-03T18:29:27;2.60;99.90
6954;DHT22;3516;47.980;8.808;2023-04-03T18:31:55;2.60;99.90
6954;DHT22;3516;47.980;8.808;2023-04-03T18:34:22;2.60;99.90
6954;DHT22;3516;47.980;8.808;2023-04-03T18:36:49;2.50;99.90
6954;DHT22;3516;47.980;8.808;2023-04-03T18:39:18;2.50;99.90
6954;DHT22;3516;47.980;8.808;2023-04-03T18:41:45;2.40;99.90
6954;DHT22;3516;47.980;8.808;2023-04-03T18:44:14;2.40;99.90
6954;DHT22;3516;47.980;8.808;2023-04-03T18:46:43;2.30;99.90
6954;DHT22;3516;47.980;8.808;2023-04-03T18:49:11;2.30;99.90
6954;DHT22;3516;47.980;8.808;2023-04-03T18:51:39;2.20;99.90
6954;DHT22;3516;47.980;8.808;2023-04-03T18:54:06;2.20;99.90
6954;DHT22;3516;47.980;8.808;2023-04-03T18:56:35;2.20;99.90
6954;DHT22;3516;47.980;8.808;2023-04-03T18:59:02;2.10;99.90
6954;DHT22;3516;47.980;8.808;2023-04-03T19:01:29;2.10;99.90
6954;DHT22;3516;47.980;8.808;2023-04-03T19:03:56;2.10;99.90
6954;DHT22;3516;47.980;8.808;2023-04-03T19:06:22;2.10;99.90
6954;DHT22;3516;47.980;8.808;2023-04-03T19:08:50;2.10;99.90
6954;DHT22;3516;47.980;8.808;2023-04-03T19:11:16;2.00;99.90
6954;DHT22;3516;47.980;8.808;2023-04-03T19:13:44;2.00;99.90
6954;DHT22;3516;47.980;8.808;2023-04-03T19:16:12;1.90;99.90
6954;DHT22;3516;47.980;8.808;2023-04-03T19:18:38;1.90;99.90
6954;DHT22;3516;47.980;8.808;2023-04-03T19:21:05;1.80;99.90
6954;DHT22;3516;47.980;8.808;2023-04-03T19:23:32;1.80;99.90
6954;DHT22;3516;47.980;8.808;2023-04-03T19:25:59;1.70;99.90
6954;DHT22;3516;47.980;8.808;2023-04-03T19:28:26;1.70;99.90
6954;DHT22;3516;47.980;8.808;2023-04-03T19:30:54;1.70;99.90
6954;DHT22;3516;47.980;8.808;2023-04-03T19:33:22;1.60;99.90
6954;DHT22;3516;47.980;8.808;2023-04-03T19:35:49;1.50;99.90
6954;DHT22;3516;47.980;8.808;2023-04-03T19:38:16;1.60;99.90
6954;DHT22;3516;47.980;8.808;2023-04-03T19:40:43;1.50;99.90
6954;DHT22;3516;47.980;8.808;2023-04-03T19:43:10;1.50;99.90
6954;DHT22;3516;47.980;8.808;2023-04-03T19:45:37;1.40;99.90
6954;DHT22;3516;47.980;8.808;2023-04-03T19:48:06;1.40;99.90
6954;DHT22;3516;47.980;8.808;2023-04-03T19:50:33;1.40;99.90
6954;DHT22;3516;47.980;8.808;2023-04-03T19:53:00;1.30;99.90
6954;DHT22;3516;47.980;8.808;2023-04-03T19:55:27;1.30;99.90
6954;DHT22;3516;47.980;8.808;2023-04-03T19:57:57;1.30;99.90
6954;DHT22;3516;47.980;8.808;2023-04-03T20:00:24;1.20;99.90
6954;DHT22;3516;47.980;8.808;2023-04-03T20:02:51;1.20;99.90
6954;DHT22;3516;47.980;8.808;2023-04-03T20:05:19;1.20;99.90
6954;DHT22;3516;47.980;8.808;2023-04-03T20:07:45;1.20;99.90
6954;DHT22;3516;47.980;8.808;2023-04-03T20:10:13;1.20;99.90
6954;DHT22;3516;47.980;8.808;2023-04-03T20:12:40;1.10;99.90
6954;DHT22;3516;47.980;8.808;2023-04-03T20:15:07;1.10;99.90
6954;DHT22;3516;47.980;8.808;2023-04-03T20:17:35;1.10;99.90
6954;DHT22;3516;47.980;8.808;2023-04-03T20:20:03;1.00;99.90
6954;DHT22;3516;47.980;8.808;2023-04-03T20:22:32;1.00;99.90
6954;DHT22;3516;47.980;8.808;2023-04-03T20:25:01;1.00;99.90
6954;DHT22;3516;47.980;8.808;2023-04-03T20:27:28;0.90;99.90
6954;DHT22;3516;47.980;8.808;2023-04-03T20:29:54;0.90;99.90
6954;DHT22;3516;47.980;8.808;2023-04-03T20:32:21;0.80;99.90
6954;DHT22;3516;47.980;8.808;2023-04-03T20:34:48;0.80;99.90
6954;DHT22;3516;47.980;8.808;2023-04-03T20:37:15;0.70;99.90
6954;DHT22;3516;47.980;8.808;2023-04-03T20:39:46;0.70;99.90
6954;DHT22;3516;47.980;8.808;2023-04-03T20:42:13;0.70;99.90
6954;DHT22;3516;47.980;8.808;2023-04-03T20:44:40;0.70;99.90
